Time;durP1;ratioP1;P1;durP2;ratioP2;P2;SDS_P1;SDS_P2;PMS_P1;PMS_P2;Temp;Humidity;BMP_temperature;BMP_pressure;BME280_temperature;BME280_humidity;BME280_pressure;Samples;Min_cycle;Max_cycle;Signal;HPM_P1;HPM_P2
2023/06/17 00:01:59;;;;;;;9.60;7.23;;;;;;;19.47;42.29;96201.13;4987893;28;20562;-71
2023/06/17 00:04:25;;;;;;;15.47;8.07;;;;;;;19.40;42.58;96197.28;4979559;28;20721;-71
2023/06/17 00:06:50;;;;;;;10.50;7.80;;;;;;;19.43;42.36;96199.69;4987240;28;20247;-71
2023/06/17 00:09:16;;;;;;;15.67;7.67;;;;;;;19.43;42.52;96205.00;4980049;28;20827;-70
2023/06/17 00:11:41;;;;;;;19.50;8.40;;;;;;;19.60;42.34;96192.97;4981690;28;20200;-69
2023/06/17 00:14:07;;;;;;;23.47;9.33;;;;;;;19.71;42.00;96189.44;4980489;28;20188;-70
2023/06/17 00:16:36;;;;;;;21.90;7.80;;;;;;;19.69;42.22;96192.22;4986821;28;20192;-70
2023/06/17 00:19:05;;;;;;;13.43;7.70;;;;;;;19.77;41.88;96188.91;4984252;28;20502;-69
2023/06/17 00:21:31;;;;;;;10.43;7.27;;;;;;;19.69;41.99;96192.22;4981430;28;20560;-69
2023/06/17 00:23:57;;;;;;;14.97;7.67;;;;;;;19.50;42.42;96192.88;4980420;28;20515;-70
2023/06/17 00:26:23;;;;;;;9.63;8.37;;;;;;;19.22;42.99;96184.50;4987765;28;20498;-69
2023/06/17 00:28:48;;;;;;;8.37;7.57;;;;;;;19.17;43.25;96189.38;4987419;28;20649;-70
2023/06/17 00:31:14;;;;;;;13.13;8.40;;;;;;;19.20;43.03;96193.59;4981656;28;20609;-70
2023/06/17 00:33:39;;;;;;;13.97;8.43;;;;;;;19.19;43.24;96192.75;4980349;28;20703;-70
2023/06/17 00:36:05;;;;;;;11.23;7.20;;;;;;;19.11;43.23;96192.53;4987665;28;20513;-70
2023/06/17 00:38:30;;;;;;;16.00;7.97;;;;;;;18.92;43.61;96187.00;4987407;28;20188;-70
2023/06/17 00:40:56;;;;;;;8.20;6.83;;;;;;;18.94;43.45;96190.41;4986212;28;20320;-70
2023/06/17 00:43:21;;;;;;;10.80;8.00;;;;;;;19.00;43.44;96188.09;4981423;28;20273;-70
2023/06/17 00:45:47;;;;;;;9.80;7.83;;;;;;;18.96;43.89;96193.78;4986493;28;20617;-68
2023/06/17 00:48:13;;;;;;;10.83;7.87;;;;;;;19.01;43.79;96192.41;4987784;28;20204;-70
2023/06/17 00:50:39;;;;;;;8.93;8.10;;;;;;;18.88;43.93;96196.22;4987899;28;20203;-70
2023/06/17 00:53:06;;;;;;;16.30;8.17;;;;;;;18.88;43.55;96190.91;4985538;28;20431;-70
2023/06/17 00:55:32;;;;;;;11.97;7.53;;;;;;;18.76;43.98;96193.56;4979787;28;20432;-71
2023/06/17 00:57:59;;;;;;;46.63;11.07;;;;;;;18.62;44.11;96193.81;4979139;28;20428;-70
2023/06/17 01:00:24;;;;;;;16.43;8.00;;;;;;;18.60;44.09;96188.59;4980078;28;21164;-69
2023/06/17 01:02:50;;;;;;;23.13;8.87;;;;;;;18.59;44.22;96186.03;4984587;28;20435;-68
2023/06/17 01:05:17;;;;;;;10.53;7.43;;;;;;;18.53;44.85;96195.38;4979418;28;20191;-70
2023/06/17 01:07:46;;;;;;;9.60;8.00;;;;;;;18.56;44.14;96192.44;4974851;28;20217;-70
2023/06/17 01:10:24;;;;;;;33.53;9.80;;;;;;;18.52;44.49;96190.16;4985630;28;20490;-70
2023/06/17 01:12:52;;;;;;;14.27;7.80;;;;;;;18.49;44.68;96187.75;4986638;28;21158;-70
2023/06/17 01:15:18;;;;;;;13.10;7.17;;;;;;;18.67;44.32;96183.63;4982534;28;20768;-68
2023/06/17 01:17:46;;;;;;;8.50;7.70;;;;;;;18.75;44.11;96175.03;4980942;28;20439;-70
2023/06/17 01:20:13;;;;;;;9.50;6.37;;;;;;;18.57;44.82;96188.00;4986866;28;20446;-70
2023/06/17 01:22:40;;;;;;;12.63;7.93;;;;;;;18.57;44.44;96180.03;4985164;28;20448;-70
2023/06/17 01:25:06;;;;;;;7.80;7.00;;;;;;;18.54;44.49;96183.78;4985684;28;20451;-72
2023/06/17 01:27:33;;;;;;;10.20;7.23;;;;;;;18.41;45.09;96186.53;4990585;28;20866;-70
2023/06/17 01:29:59;;;;;;;10.53;8.27;;;;;;;18.35;44.78;96184.38;4983725;28;20463;-69
2023/06/17 01:32:24;;;;;;;13.87;8.73;;;;;;;18.37;44.77;96176.28;4974919;28;20483;-70
2023/06/17 01:35:04;;;;;;;11.20;7.57;;;;;;;18.38;45.00;96183.31;4983216;28;20177;-69
2023/06/17 01:37:42;;;;;;;9.27;7.90;;;;;;;18.50;44.81;96190.31;4982459;28;20197;-71
2023/06/17 01:40:12;;;;;;;17.07;8.00;;;;;;;18.56;44.45;96179.16;4982695;28;20447;-70
2023/06/17 01:42:44;;;;;;;11.10;8.07;;;;;;;18.50;44.71;96173.53;4974000;28;20814;-71
2023/06/17 01:45:11;;;;;;;9.10;7.63;;;;;;;18.43;44.77;96181.13;4978002;28;20440;-70
2023/06/17 01:47:37;;;;;;;8.70;7.30;;;;;;;18.24;45.52;96186.19;4986862;28;20443;-69
2023/06/17 01:50:04;;;;;;;11.57;7.70;;;;;;;18.34;45.04;96185.34;4986582;28;20439;-68
2023/06/17 01:52:30;;;;;;;7.90;7.10;;;;;;;18.23;45.50;96179.19;4980627;28;20201;-70
2023/06/17 01:54:56;;;;;;;11.03;7.20;;;;;;;18.09;45.89;96183.75;4985553;28;20471;-68
2023/06/17 01:57:21;;;;;;;10.87;8.60;;;;;;;17.96;46.47;96183.84;4983554;28;20178;-70
2023/06/17 01:59:47;;;;;;;10.40;7.07;;;;;;;18.36;45.02;96186.06;4980432;28;20322;-70
2023/06/17 02:02:12;;;;;;;16.93;8.10;;;;;;;18.49;45.02;96179.78;4983181;28;20212;-70
2023/06/17 02:04:38;;;;;;;13.90;7.70;;;;;;;18.67;44.57;96186.28;4983542;28;20189;-70
2023/06/17 02:07:04;;;;;;;7.87;7.07;;;;;;;18.88;44.43;96191.75;4989855;28;20185;-69
2023/06/17 02:09:29;;;;;;;7.77;7.07;;;;;;;18.78;44.15;96183.66;4989167;28;20200;-70
2023/06/17 02:11:54;;;;;;;16.70;8.50;;;;;;;18.89;43.87;96176.63;4988905;28;20271;-70
2023/06/17 02:14:20;;;;;;;8.50;6.70;;;;;;;18.87;43.74;96184.72;4981248;28;20181;-69
2023/06/17 02:16:49;;;;;;;10.20;7.57;;;;;;;18.72;44.25;96177.97;4987041;28;20187;-70
2023/06/17 02:19:15;;;;;;;8.33;6.87;;;;;;;18.68;43.83;96176.50;4988015;28;20189;-70
2023/06/17 02:21:41;;;;;;;9.23;7.37;;;;;;;18.66;44.01;96179.31;4985628;28;20590;-70
2023/06/17 02:24:07;;;;;;;14.10;7.70;;;;;;;18.56;44.02;96181.81;4989581;28;20440;-69
2023/06/17 02:26:32;;;;;;;8.30;7.10;;;;;;;18.63;44.29;96177.72;4989975;28;20513;-69
2023/06/17 02:28:58;;;;;;;14.43;7.60;;;;;;;18.85;44.03;96177.84;4981732;28;20203;-69
2023/06/17 02:31:26;;;;;;;11.80;7.80;;;;;;;18.94;43.75;96171.78;4982880;28;20202;-69
2023/06/17 02:33:51;;;;;;;8.60;7.20;;;;;;;18.97;43.30;96175.06;4987306;28;20180;-69
2023/06/17 02:36:18;;;;;;;15.00;8.17;;;;;;;19.01;43.63;96180.94;4989531;28;20514;-69
2023/06/17 02:38:44;;;;;;;24.63;9.10;;;;;;;18.80;43.96;96168.44;4982901;28;20189;-69
2023/06/17 02:41:10;;;;;;;10.60;8.53;;;;;;;18.78;44.53;96173.03;4981735;28;20475;-69
2023/06/17 02:43:35;;;;;;;13.77;7.57;;;;;;;18.51;44.68;96177.84;4986874;28;20191;-70
2023/06/17 02:46:01;;;;;;;11.10;7.20;;;;;;;18.50;45.08;96179.66;4989459;28;20255;-70
2023/06/17 02:48:26;;;;;;;16.83;9.33;;;;;;;18.50;44.76;96174.34;4988361;28;20223;-70
2023/06/17 02:50:53;;;;;;;29.83;10.83;;;;;;;18.49;44.84;96170.00;4981231;28;20201;-69
2023/06/17 02:53:19;;;;;;;23.17;7.50;;;;;;;18.54;44.71;96173.16;4980614;28;20227;-69
2023/06/17 02:55:45;;;;;;;13.40;7.90;;;;;;;18.69;44.29;96176.41;4989036;28;21148;-69
2023/06/17 02:58:14;;;;;;;10.40;7.20;;;;;;;18.50;44.41;96173.53;4985058;28;20217;-70
2023/06/17 03:00:40;;;;;;;16.70;7.80;;;;;;;18.40;45.05;96173.38;4989457;28;20795;-70
2023/06/17 03:03:06;;;;;;;25.13;11.43;;;;;;;18.38;44.78;96178.81;4984028;28;20494;-69
2023/06/17 03:05:32;;;;;;;11.50;9.13;;;;;;;18.23;45.17;96172.03;4987758;28;20180;-69
2023/06/17 03:07:57;;;;;;;8.57;7.33;;;;;;;18.34;44.50;96179.19;4986665;28;20461;-68
2023/06/17 03:10:22;;;;;;;15.03;8.67;;;;;;;18.25;44.93;96172.78;4990284;28;20527;-69
2023/06/17 03:12:48;;;;;;;15.93;7.93;;;;;;;18.31;45.49;96182.94;4983291;28;20220;-69
2023/06/17 03:15:17;;;;;;;9.40;7.57;;;;;;;18.41;44.81;96175.09;4988471;28;20326;-69
2023/06/17 03:17:42;;;;;;;15.57;8.57;;;;;;;18.27;45.22;96178.81;4989372;28;20674;-69
2023/06/17 03:20:08;;;;;;;16.50;7.97;;;;;;;18.34;45.42;96180.03;4986295;28;20447;-69
2023/06/17 03:22:33;;;;;;;27.40;8.03;;;;;;;18.21;45.25;96176.63;4980421;28;20196;-70
2023/06/17 03:24:59;;;;;;;31.60;11.30;;;;;;;18.23;45.53;96173.88;4979953;28;20194;-70
2023/06/17 03:27:25;;;;;;;49.17;11.77;;;;;;;18.22;45.40;96169.53;4988856;28;20213;-70
2023/06/17 03:29:50;;;;;;;19.17;9.13;;;;;;;18.23;45.35;96168.56;4984844;28;20204;-69
2023/06/17 03:32:16;;;;;;;16.93;8.63;;;;;;;18.09;45.39;96165.16;4980269;28;20197;-70
2023/06/17 03:34:42;;;;;;;14.73;8.10;;;;;;;18.04;46.01;96171.78;4987600;28;20196;-69
2023/06/17 03:37:08;;;;;;;32.00;10.07;;;;;;;18.08;45.92;96181.22;4980360;28;20191;-69
2023/06/17 03:39:33;;;;;;;27.17;9.03;;;;;;;18.05;46.02;96182.31;4987937;28;20439;-69
2023/06/17 03:41:59;;;;;;;25.67;10.60;;;;;;;18.19;45.76;96175.94;4980407;28;20209;-69
2023/06/17 03:44:24;;;;;;;17.40;9.63;;;;;;;18.25;45.83;96179.91;4980209;28;20200;-69
2023/06/17 03:46:49;;;;;;;16.87;9.03;;;;;;;18.02;47.01;96177.22;4978395;28;20722;-69
2023/06/17 03:49:15;;;;;;;16.17;11.00;;;;;;;18.17;46.54;96180.50;4988759;28;20203;-69
2023/06/17 03:51:40;;;;;;;12.37;11.10;;;;;;;18.19;46.37;96183.91;4984853;28;20205;-69
2023/06/17 03:54:06;;;;;;;12.60;11.40;;;;;;;18.20;46.46;96186.41;4989224;28;20523;-69
2023/06/17 03:56:31;;;;;;;13.80;10.83;;;;;;;18.26;46.44;96182.44;4984255;28;20189;-69
2023/06/17 03:58:57;;;;;;;15.30;11.17;;;;;;;18.37;46.02;96195.72;4994400;28;20546;-71
2023/06/17 04:01:22;;;;;;;13.03;11.37;;;;;;;18.37;45.86;96189.56;4987399;28;20228;-69
2023/06/17 04:03:47;;;;;;;25.13;12.57;;;;;;;18.33;46.48;96188.09;5001283;28;20181;-71
2023/06/17 04:06:13;;;;;;;27.23;13.10;;;;;;;18.27;46.81;96186.78;4995188;28;20192;-69
2023/06/17 04:08:39;;;;;;;34.77;15.57;;;;;;;18.11;47.23;96188.94;4989976;28;20181;-70
2023/06/17 04:11:05;;;;;;;28.60;13.70;;;;;;;18.19;47.39;96190.03;4986568;28;20209;-70
2023/06/17 04:13:30;;;;;;;50.83;13.30;;;;;;;18.45;46.69;96188.97;4994787;28;20489;-70
2023/06/17 04:15:56;;;;;;;82.17;18.87;;;;;;;18.32;47.07;96192.56;4993659;28;20287;-69
2023/06/17 04:18:22;;;;;;;22.90;12.40;;;;;;;18.22;47.33;96194.28;4990146;28;20187;-69
2023/06/17 04:20:49;;;;;;;58.67;15.07;;;;;;;18.40;47.22;96200.81;4982772;28;20468;-69
2023/06/17 04:23:14;;;;;;;54.80;15.63;;;;;;;18.28;46.88;96203.56;4987266;28;20443;-70
2023/06/17 04:25:40;;;;;;;44.00;13.57;;;;;;;18.26;47.04;96200.19;4987763;28;20519;-69
2023/06/17 04:28:07;;;;;;;15.40;10.23;;;;;;;18.13;47.34;96201.13;4984324;28;20184;-69
2023/06/17 04:30:33;;;;;;;13.30;11.27;;;;;;;18.16;47.08;96202.72;4983156;28;20196;-69
2023/06/17 04:33:00;;;;;;;14.00;10.13;;;;;;;18.23;47.30;96200.44;4992826;28;20440;-69
2023/06/17 04:35:29;;;;;;;12.90;11.50;;;;;;;18.19;47.26;96200.66;4980802;28;20435;-70
2023/06/17 04:37:55;;;;;;;13.50;12.10;;;;;;;17.96;47.80;96206.91;4986978;28;20539;-68
2023/06/17 04:40:25;;;;;;;18.13;11.87;;;;;;;17.96;47.65;96197.13;4987752;28;20439;-69
2023/06/17 04:42:51;;;;;;;42.40;12.90;;;;;;;17.97;48.08;96206.78;4978672;28;20435;-71
2023/06/17 04:45:17;;;;;;;16.03;12.33;;;;;;;18.20;47.36;96204.16;4986767;28;20467;-72
2023/06/17 04:47:44;;;;;;;12.63;10.40;;;;;;;18.03;47.57;96199.31;4985601;28;20586;-70
2023/06/17 04:50:10;;;;;;;16.77;11.80;;;;;;;18.10;47.40;96198.72;4982940;28;20517;-70
2023/06/17 04:52:36;;;;;;;17.13;10.90;;;;;;;18.16;47.50;96192.91;4986990;28;20537;-70
2023/06/17 04:55:01;;;;;;;12.50;11.20;;;;;;;18.20;47.06;96197.03;4986549;28;20819;-71
2023/06/17 04:57:27;;;;;;;22.33;12.40;;;;;;;18.30;47.15;96197.16;4987400;28;20446;-71
2023/06/17 04:59:52;;;;;;;18.10;9.50;;;;;;;18.20;46.89;96204.16;4983294;28;20193;-70
2023/06/17 05:02:17;;;;;;;16.43;11.50;;;;;;;18.08;47.80;96194.50;4983100;28;20220;-70
2023/06/17 05:04:43;;;;;;;20.77;12.27;;;;;;;18.06;47.20;96194.59;4987196;28;20207;-72
2023/06/17 05:07:08;;;;;;;18.83;12.60;;;;;;;18.12;47.49;96198.63;4984374;28;20222;-71
2023/06/17 05:09:34;;;;;;;14.73;10.47;;;;;;;18.58;46.51;96201.16;4981829;28;20650;-71
2023/06/17 05:11:59;;;;;;;17.77;12.57;;;;;;;18.69;45.97;96197.66;4983098;28;20630;-71
2023/06/17 05:14:25;;;;;;;28.57;13.10;;;;;;;18.90;45.69;96197.78;4981861;28;20212;-71
2023/06/17 05:16:50;;;;;;;30.90;12.47;;;;;;;18.80;45.48;96200.34;4987164;28;20189;-70
2023/06/17 05:19:15;;;;;;;15.43;11.17;;;;;;;18.96;45.47;96202.59;4979492;28;20180;-71
2023/06/17 05:21:41;;;;;;;23.67;11.37;;;;;;;19.32;44.78;96197.91;4985723;28;20208;-71
2023/06/17 05:24:06;;;;;;;14.27;11.60;;;;;;;19.49;44.33;96206.31;4984492;28;20985;-70
2023/06/17 05:26:31;;;;;;;18.00;11.10;;;;;;;19.77;43.72;96197.78;4982017;28;20177;-70
2023/06/17 05:28:57;;;;;;;30.40;11.70;;;;;;;19.83;43.39;96196.41;4985742;28;20193;-71
2023/06/17 05:31:22;;;;;;;29.47;11.77;;;;;;;19.89;43.54;96201.22;4972904;28;20201;-71
2023/06/17 05:33:48;;;;;;;26.73;11.13;;;;;;;20.12;43.04;96203.72;4984959;28;20177;-70
2023/06/17 05:36:13;;;;;;;16.43;11.33;;;;;;;20.39;42.29;96196.03;4973793;28;20173;-71
2023/06/17 05:38:39;;;;;;;68.83;19.70;;;;;;;20.42;42.35;96198.44;4996082;28;20177;-70
2023/06/17 05:41:05;;;;;;;55.00;14.50;;;;;;;20.65;41.95;96200.97;5011073;28;20216;-70
2023/06/17 05:43:31;;;;;;;33.03;13.30;;;;;;;20.48;42.32;96194.38;4986037;28;20207;-71
2023/06/17 05:45:56;;;;;;;59.70;16.77;;;;;;;20.68;42.05;96200.69;4986879;28;20638;-70
2023/06/17 05:48:21;;;;;;;29.73;12.60;;;;;;;20.84;41.79;96197.50;4981356;28;20185;-71
2023/06/17 05:50:47;;;;;;;44.17;14.40;;;;;;;20.81;41.74;96190.63;4981317;28;20212;-71
2023/06/17 05:53:12;;;;;;;19.40;11.57;;;;;;;20.51;42.23;96197.63;4977146;28;20231;-71
2023/06/17 05:55:38;;;;;;;63.97;19.20;;;;;;;20.76;42.16;96195.50;4980839;28;20646;-71
2023/06/17 05:58:03;;;;;;;28.50;11.57;;;;;;;20.72;42.07;96194.09;4986358;28;20567;-71
2023/06/17 06:00:29;;;;;;;32.00;12.23;;;;;;;21.05;41.18;96197.44;4981365;28;20304;-72
2023/06/17 06:02:54;;;;;;;28.90;11.33;;;;;;;21.25;40.90;96184.97;4984751;28;20184;-70
2023/06/17 06:05:20;;;;;;;38.07;13.00;;;;;;;21.47;40.55;96189.22;4995590;28;20211;-69
2023/06/17 06:07:45;;;;;;;31.83;10.93;;;;;;;21.68;41.17;96187.25;4978220;28;20181;-71
2023/06/17 06:10:11;;;;;;;23.83;10.63;;;;;;;21.84;40.27;96183.16;4983273;28;20327;-69
2023/06/17 06:12:37;;;;;;;26.20;11.30;;;;;;;21.84;40.57;96191.19;4982539;28;20178;-70
2023/06/17 06:15:04;;;;;;;15.87;8.80;;;;;;;21.68;41.15;96192.59;4980691;28;20515;-70
2023/06/17 06:17:30;;;;;;;14.70;10.20;;;;;;;21.59;41.23;96198.78;4979769;28;20475;-69
2023/06/17 06:19:55;;;;;;;19.20;10.60;;;;;;;21.82;39.87;96185.97;4977586;28;20440;-70
2023/06/17 06:22:20;;;;;;;16.60;9.83;;;;;;;21.93;40.04;96193.84;4981471;28;20483;-69
2023/06/17 06:24:46;;;;;;;17.40;9.23;;;;;;;22.04;39.63;96189.31;4983357;28;20196;-69
2023/06/17 06:27:11;;;;;;;12.00;9.20;;;;;;;22.11;38.91;96191.28;4978162;28;20687;-69
2023/06/17 06:29:37;;;;;;;24.50;10.07;;;;;;;22.52;38.68;96196.41;4996059;28;20189;-70
2023/06/17 06:32:03;;;;;;;12.03;9.30;;;;;;;22.46;38.52;96200.50;4990502;28;20209;-68
2023/06/17 06:34:30;;;;;;;18.33;9.10;;;;;;;22.65;38.03;96204.94;4983869;28;20644;-72
2023/06/17 06:36:56;;;;;;;28.83;10.77;;;;;;;22.66;38.14;96201.28;4982995;28;20443;-69
2023/06/17 06:39:22;;;;;;;14.27;9.80;;;;;;;22.75;37.47;96199.56;4983406;28;20177;-69
2023/06/17 06:41:48;;;;;;;25.97;10.60;;;;;;;22.98;37.89;96206.22;4982442;28;20515;-70
2023/06/17 06:44:13;;;;;;;24.90;11.50;;;;;;;22.92;37.98;96204.13;4989162;28;20189;-68
2023/06/17 06:46:38;;;;;;;34.90;13.03;;;;;;;23.35;37.70;96199.94;4987654;28;20208;-68
2023/06/17 06:49:04;;;;;;;47.43;12.20;;;;;;;23.36;37.59;96208.81;4989313;28;20184;-69
2023/06/17 06:51:29;;;;;;;25.20;11.20;;;;;;;23.04;38.46;96200.28;4992083;28;20515;-70
2023/06/17 06:53:55;;;;;;;44.93;13.10;;;;;;;23.33;37.67;96207.28;4996248;28;20239;-70
2023/06/17 06:56:20;;;;;;;18.77;10.10;;;;;;;23.22;37.90;96208.34;4992696;28;20232;-71
2023/06/17 06:58:46;;;;;;;19.57;9.67;;;;;;;23.57;37.28;96206.69;4995614;28;20247;-71
2023/06/17 07:01:13;;;;;;;15.63;9.57;;;;;;;23.75;36.55;96204.06;4994421;28;20304;-69
2023/06/17 07:03:39;;;;;;;13.23;9.97;;;;;;;23.74;35.83;96199.69;4987073;28;20433;-71
2023/06/17 07:06:05;;;;;;;16.70;10.30;;;;;;;23.87;35.63;96202.81;4991137;28;20925;-71
2023/06/17 07:08:30;;;;;;;15.10;9.37;;;;;;;23.84;36.15;96213.00;4989319;28;20494;-73
2023/06/17 07:10:56;;;;;;;10.50;9.43;;;;;;;23.92;35.99;96196.16;4995693;28;20837;-68
2023/06/17 07:13:21;;;;;;;15.93;9.10;;;;;;;24.01;35.71;96200.59;4985212;28;20191;-69
2023/06/17 07:15:46;;;;;;;18.83;9.10;;;;;;;24.03;35.64;96195.91;4981510;28;20519;-72
2023/06/17 07:18:12;;;;;;;16.57;9.03;;;;;;;24.33;35.25;96197.31;4990366;28;20181;-69
2023/06/17 07:20:38;;;;;;;21.90;9.17;;;;;;;24.47;35.07;96203.94;4989722;28;20209;-70
2023/06/17 07:23:03;;;;;;;32.00;10.20;;;;;;;24.07;36.45;96205.31;4988854;28;20199;-70
2023/06/17 07:25:29;;;;;;;21.23;10.60;;;;;;;24.25;36.40;96205.28;4989014;28;20188;-68
2023/06/17 07:27:59;;;;;;;24.80;12.90;;;;;;;24.54;35.57;96206.84;4989614;28;20223;-69
2023/06/17 07:30:26;;;;;;;20.27;10.93;;;;;;;24.34;35.62;96196.28;4988275;28;20894;-69
2023/06/17 07:32:52;;;;;;;12.00;9.80;;;;;;;24.41;35.66;96207.25;4990069;28;20408;-67
2023/06/17 07:35:18;;;;;;;13.33;9.50;;;;;;;24.80;34.64;96204.13;4990133;28;20420;-70
2023/06/17 07:37:43;;;;;;;17.47;8.90;;;;;;;25.00;34.57;96197.50;4991177;28;20189;-69
2023/06/17 07:40:10;;;;;;;15.70;9.43;;;;;;;25.03;34.46;96205.22;4996375;28;20177;-66
2023/06/17 07:42:37;;;;;;;13.60;9.87;;;;;;;25.17;34.05;96195.72;4994350;28;20569;-69
2023/06/17 07:45:06;;;;;;;22.10;12.47;;;;;;;25.33;33.56;96194.97;4992725;28;20434;-68
2023/06/17 07:47:31;;;;;;;9.97;9.00;;;;;;;24.35;34.81;96194.44;4992309;28;20496;-69
2023/06/17 07:49:57;;;;;;;15.47;9.60;;;;;;;24.07;35.62;96198.13;4992681;28;20446;-71
2023/06/17 07:52:22;;;;;;;9.23;8.00;;;;;;;24.89;33.94;96190.56;5010578;28;20206;-68
2023/06/17 07:54:48;;;;;;;8.90;8.10;;;;;;;24.49;33.91;96186.69;5009715;28;20172;-68
2023/06/17 07:57:14;;;;;;;9.33;8.27;;;;;;;24.91;34.10;96191.25;5009990;28;20180;-68
2023/06/17 07:59:42;;;;;;;12.60;7.93;;;;;;;25.05;33.61;96191.66;4998857;28;20568;-69
2023/06/17 08:02:08;;;;;;;18.80;9.20;;;;;;;25.27;33.03;96193.75;4983864;28;20480;-71
2023/06/17 08:04:33;;;;;;;11.80;8.63;;;;;;;25.55;32.34;96183.56;4987896;28;20435;-68
2023/06/17 08:07:04;;;;;;;14.13;7.60;;;;;;;25.23;32.06;96183.50;4990289;28;20319;-70
2023/06/17 08:09:30;;;;;;;13.97;9.50;;;;;;;25.53;32.35;96176.69;4990565;28;20190;-69
2023/06/17 08:11:55;;;;;;;10.80;8.20;;;;;;;25.59;31.48;96183.25;4992373;28;21252;-70
2023/06/17 08:14:21;;;;;;;12.27;7.90;;;;;;;25.63;31.91;96180.09;4992214;28;20606;-70
2023/06/17 08:16:46;;;;;;;9.60;7.33;;;;;;;25.99;30.95;96179.78;4993543;28;20205;-69
2023/06/17 08:19:12;;;;;;;8.87;7.87;;;;;;;26.15;31.04;96170.84;4989877;28;20682;-67
2023/06/17 08:21:38;;;;;;;20.33;9.37;;;;;;;26.29;31.08;96177.38;4988319;28;20235;-70
2023/06/17 08:24:24;;;;;;;16.60;8.40;;;;;;;26.64;30.11;96170.78;4990247;28;20184;-70
2023/06/17 08:26:51;;;;;;;24.33;9.50;;;;;;;26.56;29.47;96174.34;4988102;28;20436;-69
2023/06/17 08:29:18;;;;;;;22.13;8.90;;;;;;;26.38;30.21;96169.13;4982928;28;20436;-70
2023/06/17 08:31:45;;;;;;;11.40;8.10;;;;;;;26.64;29.55;96167.25;4980471;28;20472;-70
2023/06/17 08:34:12;;;;;;;14.83;7.27;;;;;;;26.90;29.25;96161.59;4976347;28;21971;-72
2023/06/17 08:36:40;;;;;;;12.20;8.30;;;;;;;26.97;28.06;96154.50;4966995;28;20488;-71
2023/06/17 08:39:06;;;;;;;25.60;7.80;;;;;;;26.86;27.51;96149.50;4965068;28;20420;-69
2023/06/17 08:41:38;;;;;;;18.73;7.90;;;;;;;26.87;27.17;96146.63;4967217;28;20483;-70
2023/06/17 08:44:06;;;;;;;12.60;7.20;;;;;;;26.94;25.63;96147.63;4963945;28;20181;-69
2023/06/17 08:46:31;;;;;;;11.80;6.70;;;;;;;26.85;26.52;96147.81;4961313;28;20432;-68
2023/06/17 08:48:58;;;;;;;9.87;7.00;;;;;;;26.52;27.59;96139.84;4965857;28;20980;-70
2023/06/17 08:51:23;;;;;;;18.50;8.07;;;;;;;26.04;28.24;96130.88;4965074;28;20201;-67
2023/06/17 08:53:50;;;;;;;10.20;7.27;;;;;;;25.60;27.95;96139.25;4963142;28;20444;-69
2023/06/17 08:56:16;;;;;;;11.63;8.07;;;;;;;25.17;28.42;96135.81;4962719;28;20275;-69
2023/06/17 08:58:43;;;;;;;10.30;6.93;;;;;;;25.19;28.21;96137.34;4966098;28;20914;-68
2023/06/17 09:01:10;;;;;;;9.60;7.60;;;;;;;25.37;28.71;96133.69;4964348;28;20213;-67
2023/06/17 09:03:38;;;;;;;13.00;7.03;;;;;;;25.54;27.92;96130.84;4967229;28;20432;-69
2023/06/17 09:06:23;;;;;;;60.07;14.07;;;;;;;25.44;29.07;96129.31;4958638;28;20441;-70
2023/06/17 09:08:53;;;;;;;11.73;7.03;;;;;;;25.29;29.28;96126.47;4963750;28;20444;-68
2023/06/17 09:11:24;;;;;;;16.80;8.07;;;;;;;25.03;28.85;96134.59;4952809;28;20462;-69
2023/06/17 09:13:51;;;;;;;14.63;8.20;;;;;;;24.92;29.15;96133.91;4963764;28;20472;-69
2023/06/17 09:16:23;;;;;;;28.13;9.47;;;;;;;24.60;29.27;96131.91;4965492;28;20516;-70
2023/06/17 09:18:54;;;;;;;13.43;8.00;;;;;;;24.62;29.10;96137.97;4963069;28;20984;-71
2023/06/17 09:21:20;;;;;;;10.60;7.60;;;;;;;24.29;29.17;96132.41;4964358;28;20472;-70
2023/06/17 09:23:52;;;;;;;11.00;7.00;;;;;;;24.15;29.57;96134.84;4967636;28;20495;-70
2023/06/17 09:26:17;;;;;;;17.80;7.90;;;;;;;24.15;30.41;96135.69;4967711;28;20734;-69
2023/06/17 09:28:44;;;;;;;10.60;6.70;;;;;;;24.38;29.84;96135.13;4968129;28;20417;-70
2023/06/17 09:31:09;;;;;;;17.80;8.80;;;;;;;24.64;29.32;96133.28;4967924;28;20272;-69
2023/06/17 09:33:35;;;;;;;8.33;7.47;;;;;;;24.83;28.75;96137.56;4967764;28;20416;-70
2023/06/17 09:36:03;;;;;;;17.67;9.27;;;;;;;25.35;28.28;96123.13;4965421;28;20223;-71
2023/06/17 09:38:30;;;;;;;12.97;7.73;;;;;;;25.96;27.21;96127.19;4966014;28;20185;-69
2023/06/17 09:40:57;;;;;;;65.83;12.93;;;;;;;26.51;27.18;96128.25;4962699;28;20577;-70
2023/06/17 09:43:27;;;;;;;14.13;8.27;;;;;;;26.56;26.34;96125.91;4962783;28;20469;-70
2023/06/17 09:46:00;;;;;;;24.73;9.30;;;;;;;26.27;26.90;96131.84;4961988;28;20443;-70
2023/06/17 09:48:34;;;;;;;13.47;7.53;;;;;;;26.08;27.58;96129.50;4960032;28;20448;-70
2023/06/17 09:51:00;;;;;;;40.77;13.40;;;;;;;26.33;26.52;96128.44;4967334;28;20461;-70
2023/06/17 09:53:29;;;;;;;12.57;6.97;;;;;;;26.71;26.03;96120.63;4967479;28;20462;-71
2023/06/17 09:55:59;;;;;;;12.30;7.40;;;;;;;26.93;25.88;96121.72;4968213;28;20525;-70
2023/06/17 09:58:31;;;;;;;24.63;8.13;;;;;;;26.84;26.14;96120.06;4968681;28;20420;-69
2023/06/17 10:00:57;;;;;;;9.60;8.60;;;;;;;27.07;25.33;96113.88;4979292;28;20475;-70
2023/06/17 10:03:22;;;;;;;14.47;9.70;;;;;;;27.24;25.29;96107.44;4981744;28;20444;-71
2023/06/17 10:06:06;;;;;;;17.80;8.30;;;;;;;27.14;25.34;96109.47;4982226;28;20483;-70
2023/06/17 10:08:35;;;;;;;13.50;7.53;;;;;;;26.81;25.30;96102.41;4984397;28;20180;-67
2023/06/17 10:11:01;;;;;;;14.17;7.67;;;;;;;26.68;24.84;96109.38;4967588;28;20455;-70
2023/06/17 10:13:29;;;;;;;16.40;7.30;;;;;;;26.35;24.56;96107.59;4960738;28;20503;-69
2023/06/17 10:15:58;;;;;;;9.13;6.80;;;;;;;26.48;24.27;96096.31;4960879;28;20185;-69
2023/06/17 10:18:24;;;;;;;11.57;6.50;;;;;;;26.24;24.05;96099.06;4967876;28;20427;-70
2023/06/17 10:20:52;;;;;;;14.53;7.33;;;;;;;26.40;23.88;96090.94;4966481;28;20468;-70
2023/06/17 10:23:20;;;;;;;8.33;5.57;;;;;;;26.54;23.17;96089.41;4965520;28;20503;-71
2023/06/17 10:25:46;;;;;;;6.97;5.70;;;;;;;26.56;23.42;96084.69;4969161;28;20431;-69
2023/06/17 10:28:14;;;;;;;10.20;6.90;;;;;;;26.67;23.33;96087.00;4962049;28;20429;-70
2023/06/17 10:30:43;;;;;;;8.03;6.60;;;;;;;26.63;23.03;96079.47;4967995;28;20197;-69
2023/06/17 10:33:09;;;;;;;6.67;6.03;;;;;;;26.20;23.31;96090.50;4969730;28;20439;-71
2023/06/17 10:35:43;;;;;;;8.03;6.73;;;;;;;26.15;23.81;96084.78;4967888;28;21177;-70
2023/06/17 10:38:10;;;;;;;12.20;6.00;;;;;;;25.97;24.37;96085.84;4967386;28;20211;-69
2023/06/17 10:40:50;;;;;;;11.77;6.97;;;;;;;26.16;23.22;96084.63;4970304;28;20572;-72
2023/06/17 10:43:17;;;;;;;9.53;6.80;;;;;;;26.42;23.13;96090.78;4970081;28;20436;-70
2023/06/17 10:45:49;;;;;;;22.53;6.80;;;;;;;26.82;23.47;96087.09;4975283;28;20428;-71
2023/06/17 10:48:22;;;;;;;16.20;7.13;;;;;;;26.82;23.04;96081.72;4985910;28;20424;-69
2023/06/17 10:50:53;;;;;;;9.60;6.90;;;;;;;26.61;22.93;96077.75;4985590;28;20984;-69
2023/06/17 10:53:24;;;;;;;9.80;5.77;;;;;;;26.08;23.28;96075.72;4990814;28;20459;-69
2023/06/17 10:55:50;;;;;;;13.50;7.10;;;;;;;26.24;24.14;96073.00;4995193;28;20790;-70
2023/06/17 10:58:15;;;;;;;6.70;5.70;;;;;;;25.96;22.48;96073.41;5003392;28;20575;-69
2023/06/17 11:00:40;;;;;;;19.50;7.53;;;;;;;26.06;23.13;96067.00;4999206;28;20244;-71
2023/06/17 11:03:08;;;;;;;9.50;6.80;;;;;;;26.17;23.15;96066.63;4998564;28;20661;-69
2023/06/17 11:05:35;;;;;;;10.70;7.03;;;;;;;26.43;22.66;96068.22;4989820;28;20573;-70
2023/06/17 11:08:03;;;;;;;9.97;7.07;;;;;;;26.47;22.50;96064.19;4988878;28;21123;-71
2023/06/17 11:10:28;;;;;;;15.60;7.20;;;;;;;26.46;22.07;96066.03;4988654;28;20559;-70
2023/06/17 11:12:54;;;;;;;7.23;6.47;;;;;;;26.56;22.41;96053.22;4980601;28;20490;-69
2023/06/17 11:15:21;;;;;;;11.50;6.13;;;;;;;26.45;21.80;96055.44;4988957;28;20621;-70
2023/06/17 11:17:46;;;;;;;20.17;7.00;;;;;;;26.39;22.19;96062.38;4987528;28;20177;-71
2023/06/17 11:20:12;;;;;;;13.13;6.43;;;;;;;26.50;21.87;96059.28;4985805;28;20472;-69
2023/06/17 11:22:38;;;;;;;9.40;6.10;;;;;;;26.70;21.56;96065.13;4984999;28;20205;-69